Time;durP1;ratioP1;P1;durP2;ratioP2;P2;SDS_P1;SDS_P2;PMS_P1;PMS_P2;Temp;Humidity;BMP_temperature;BMP_pressure;BME280_temperature;BME280_humidity;BME280_pressure;Samples;Min_cycle;Max_cycle;Signal;HPM_P1;HPM_P2
2023/08/30 00:00:57;;;;;;;10.23;5.80;;;;;;;;;;5022016;28;25051;-68
2023/08/30 00:03:23;;;;;;;9.50;6.07;;;;;;;;;;5030885;28;25079;-68
2023/08/30 00:05:49;;;;;;;9.65;6.55;;;;;;;;;;5022062;28;25096;-68
2023/08/30 00:08:19;;;;;;;9.45;6.63;;;;;;;;;;5011795;28;25076;-68
2023/08/30 00:10:48;;;;;;;12.10;6.70;;;;;;;;;;5018427;28;25144;-69
2023/08/30 00:13:14;;;;;;;10.68;6.20;;;;;;;;;;5021285;28;25093;-69
2023/08/30 00:15:40;;;;;;;10.57;6.93;;;;;;;;;;5017142;28;25094;-70
2023/08/30 00:18:06;;;;;;;8.70;6.47;;;;;;;;;;5021735;28;25102;-69
2023/08/30 00:20:32;;;;;;;12.38;7.13;;;;;;;;;;5023246;28;25112;-68
2023/08/30 00:22:58;;;;;;;10.48;6.57;;;;;;;;;;5023619;28;25059;-69
2023/08/30 00:25:24;;;;;;;11.82;7.50;;;;;;;;;;5027700;28;25059;-69
2023/08/30 00:27:50;;;;;;;12.07;6.50;;;;;;;;;;5019339;28;25063;-69
2023/08/30 00:30:16;;;;;;;10.70;7.03;;;;;;;;;;5019179;28;25084;-69
2023/08/30 00:32:42;;;;;;;9.75;6.75;;;;;;;;;;5022070;28;25106;-68
2023/08/30 00:35:08;;;;;;;11.13;7.63;;;;;;;;;;5020264;28;25082;-68
2023/08/30 00:37:34;;;;;;;10.80;6.85;;;;;;;;;;5026056;28;25084;-69
2023/08/30 00:40:00;;;;;;;11.95;7.78;;;;;;;;;;5023444;28;25061;-69
2023/08/30 00:42:27;;;;;;;14.70;7.72;;;;;;;;;;5013227;28;25093;-69
2023/08/30 00:44:53;;;;;;;11.77;7.13;;;;;;;;;;5024423;28;25121;-69
2023/08/30 00:47:19;;;;;;;10.98;7.40;;;;;;;;;;5020815;28;25142;-69
2023/08/30 00:49:45;;;;;;;13.02;7.25;;;;;;;;;;5025955;28;25069;-69
2023/08/30 00:52:11;;;;;;;12.50;8.40;;;;;;;;;;5033574;28;25093;-69
2023/08/30 00:54:37;;;;;;;13.23;8.02;;;;;;;;;;5019411;28;25056;-68
2023/08/30 00:57:05;;;;;;;13.13;8.88;;;;;;;;;;5016867;28;25098;-69
2023/08/30 00:59:32;;;;;;;15.27;8.57;;;;;;;;;;5019457;28;25077;-69
2023/08/30 01:01:58;;;;;;;13.43;8.13;;;;;;;;;;5027300;28;25146;-69
2023/08/30 01:04:24;;;;;;;12.55;8.00;;;;;;;;;;5019462;28;25111;-69
2023/08/30 01:06:52;;;;;;;15.02;8.85;;;;;;;;;;5017711;28;25061;-68
2023/08/30 01:09:18;;;;;;;11.25;8.32;;;;;;;;;;5027202;28;25170;-69
2023/08/30 01:11:44;;;;;;;12.52;7.97;;;;;;;;;;5025597;28;25058;-70
2023/08/30 01:14:13;;;;;;;13.52;8.32;;;;;;;;;;5027873;28;25076;-70
2023/08/30 01:16:39;;;;;;;13.57;8.20;;;;;;;;;;5024764;28;25146;-69
2023/08/30 01:19:19;;;;;;;12.20;8.52;;;;;;;;;;5025004;28;25133;-69
2023/08/30 01:22:04;;;;;;;12.50;9.30;;;;;;;;;;5018925;28;25073;-69
2023/08/30 01:24:37;;;;;;;17.88;9.05;;;;;;;;;;5016528;28;25060;-69
2023/08/30 01:27:10;;;;;;;14.10;8.48;;;;;;;;;;5030332;28;25094;-70
2023/08/30 01:29:38;;;;;;;14.07;9.07;;;;;;;;;;5016403;28;25065;-69
2023/08/30 01:32:05;;;;;;;13.65;9.15;;;;;;;;;;5028064;28;25058;-69
2023/08/30 01:34:31;;;;;;;15.07;9.52;;;;;;;;;;5021706;28;25069;-69
2023/08/30 01:36:58;;;;;;;10.32;8.15;;;;;;;;;;5026739;28;25072;-70
2023/08/30 01:39:24;;;;;;;13.02;8.68;;;;;;;;;;5019548;28;25133;-69
2023/08/30 01:41:52;;;;;;;16.60;8.93;;;;;;;;;;5024433;28;25048;-69
2023/08/30 01:44:18;;;;;;;13.40;8.32;;;;;;;;;;5018746;28;25163;-68
2023/08/30 01:46:45;;;;;;;16.02;9.10;;;;;;;;;;5022018;28;25075;-70
2023/08/30 01:49:12;;;;;;;14.88;9.55;;;;;;;;;;5019412;28;25099;-70
2023/08/30 01:51:39;;;;;;;14.15;9.68;;;;;;;;;;5027083;28;25072;-72
2023/08/30 01:54:05;;;;;;;15.30;9.48;;;;;;;;;;5018806;28;25086;-72
2023/08/30 01:56:31;;;;;;;13.15;9.15;;;;;;;;;;5033222;28;25118;-70
2023/08/30 01:58:57;;;;;;;14.20;9.32;;;;;;;;;;5022453;28;25071;-72
2023/08/30 02:01:23;;;;;;;17.27;9.32;;;;;;;;;;5039654;28;25118;-72
2023/08/30 02:03:49;;;;;;;14.38;9.27;;;;;;;;;;5033500;28;25063;-72
2023/08/30 02:06:34;;;;;;;11.50;8.82;;;;;;;;;;5040092;28;25067;-72
2023/08/30 02:09:04;;;;;;;14.45;8.90;;;;;;;;;;5030429;28;25084;-71
2023/08/30 02:11:32;;;;;;;12.88;9.43;;;;;;;;;;5019275;28;25058;-72
2023/08/30 02:13:58;;;;;;;13.48;9.50;;;;;;;;;;5024422;28;25067;-73
2023/08/30 02:16:26;;;;;;;15.68;10.30;;;;;;;;;;5027449;28;25066;-72
2023/08/30 02:18:52;;;;;;;13.15;8.57;;;;;;;;;;5036213;28;25077;-72
2023/08/30 02:21:19;;;;;;;15.30;10.00;;;;;;;;;;5018872;28;25105;-72
2023/08/30 02:23:45;;;;;;;13.68;9.10;;;;;;;;;;5017801;28;25076;-72
2023/08/30 02:26:11;;;;;;;18.45;9.90;;;;;;;;;;5014783;28;25120;-71
2023/08/30 02:28:38;;;;;;;14.50;10.38;;;;;;;;;;5013186;28;25056;-72
2023/08/30 02:31:04;;;;;;;16.58;9.90;;;;;;;;;;5023084;28;25140;-72
2023/08/30 02:33:30;;;;;;;16.58;9.93;;;;;;;;;;5021709;28;25097;-71
2023/08/30 02:35:56;;;;;;;14.52;10.30;;;;;;;;;;5023219;28;25069;-72
2023/08/30 02:38:22;;;;;;;14.02;9.45;;;;;;;;;;5018966;28;25120;-72
2023/08/30 02:40:48;;;;;;;15.85;10.45;;;;;;;;;;5023256;28;25062;-72
2023/08/30 02:43:14;;;;;;;13.75;10.15;;;;;;;;;;5030044;28;25126;-73
2023/08/30 02:45:40;;;;;;;16.55;11.70;;;;;;;;;;5025411;28;25144;-72
2023/08/30 02:48:06;;;;;;;14.73;9.95;;;;;;;;;;5021512;28;25078;-72
2023/08/30 02:50:32;;;;;;;16.40;10.15;;;;;;;;;;5029060;28;25065;-72
2023/08/30 02:52:58;;;;;;;15.88;10.23;;;;;;;;;;5019364;28;25051;-72
2023/08/30 02:55:24;;;;;;;17.95;11.38;;;;;;;;;;5011394;28;25050;-72
2023/08/30 02:57:50;;;;;;;16.27;10.38;;;;;;;;;;5017624;28;25090;-71
2023/08/30 03:00:16;;;;;;;17.63;11.57;;;;;;;;;;5020702;28;25099;-71
2023/08/30 03:02:42;;;;;;;13.30;9.20;;;;;;;;;;5020840;28;25045;-71
2023/08/30 03:05:08;;;;;;;15.02;10.35;;;;;;;;;;5020180;28;25066;-72
2023/08/30 03:07:34;;;;;;;17.50;10.82;;;;;;;;;;5028126;28;25076;-70
2023/08/30 03:10:00;;;;;;;15.18;10.80;;;;;;;;;;5022231;28;25050;-72
2023/08/30 03:12:26;;;;;;;16.23;11.02;;;;;;;;;;5029795;28;25063;-71
2023/08/30 03:14:52;;;;;;;17.75;10.13;;;;;;;;;;5022319;28;25073;-71
2023/08/30 03:17:18;;;;;;;18.25;11.05;;;;;;;;;;5032714;28;25057;-72
2023/08/30 03:19:44;;;;;;;16.83;11.07;;;;;;;;;;5022060;28;25073;-72
2023/08/30 03:22:10;;;;;;;21.55;10.27;;;;;;;;;;5020014;28;25099;-71
2023/08/30 03:24:36;;;;;;;15.73;10.38;;;;;;;;;;5025137;28;25056;-72
2023/08/30 03:27:03;;;;;;;15.23;10.63;;;;;;;;;;5019596;28;25049;-72
2023/08/30 03:29:29;;;;;;;17.70;10.80;;;;;;;;;;5023296;28;25142;-71
2023/08/30 03:31:55;;;;;;;17.85;11.00;;;;;;;;;;5021278;28;25074;-72
2023/08/30 03:34:21;;;;;;;17.75;11.25;;;;;;;;;;5020392;28;25096;-71
2023/08/30 03:36:53;;;;;;;16.48;10.77;;;;;;;;;;5024202;28;25126;-70
2023/08/30 03:39:19;;;;;;;13.85;9.50;;;;;;;;;;5011289;28;25184;-69
2023/08/30 03:41:45;;;;;;;17.65;9.68;;;;;;;;;;5022824;28;25079;-70
2023/08/30 03:44:11;;;;;;;19.63;11.23;;;;;;;;;;5021323;28;25115;-70
2023/08/30 03:46:37;;;;;;;17.10;10.98;;;;;;;;;;5021012;28;25061;-70
2023/08/30 03:49:04;;;;;;;14.55;9.13;;;;;;;;;;5013260;28;25158;-70
2023/08/30 03:51:30;;;;;;;14.70;10.63;;;;;;;;;;5015439;28;25096;-69
2023/08/30 03:53:56;;;;;;;20.33;10.57;;;;;;;;;;5015969;28;25150;-70
2023/08/30 03:56:23;;;;;;;13.02;9.77;;;;;;;;;;5028708;28;25083;-71
2023/08/30 03:58:49;;;;;;;17.45;10.13;;;;;;;;;;5014839;28;25059;-70
2023/08/30 04:01:15;;;;;;;13.23;9.93;;;;;;;;;;5018447;28;25054;-70
2023/08/30 04:03:43;;;;;;;14.13;9.98;;;;;;;;;;5021886;28;25120;-70
2023/08/30 04:06:09;;;;;;;15.57;9.52;;;;;;;;;;5014782;28;25083;-70
2023/08/30 04:08:35;;;;;;;13.45;9.48;;;;;;;;;;5022569;28;25062;-70
2023/08/30 04:11:02;;;;;;;14.95;9.90;;;;;;;;;;5014566;28;25132;-68
2023/08/30 04:13:28;;;;;;;14.73;9.35;;;;;;;;;;5021235;28;25055;-70
2023/08/30 04:15:56;;;;;;;13.88;9.35;;;;;;;;;;5014113;28;25082;-70
2023/08/30 04:18:22;;;;;;;14.43;9.68;;;;;;;;;;5025000;28;25063;-70
2023/08/30 04:20:48;;;;;;;15.85;10.15;;;;;;;;;;5020777;28;25069;-69
2023/08/30 04:23:14;;;;;;;16.50;10.57;;;;;;;;;;5023242;28;25073;-71
2023/08/30 04:25:41;;;;;;;15.88;10.30;;;;;;;;;;5019677;28;25086;-70
2023/08/30 04:28:07;;;;;;;17.95;10.10;;;;;;;;;;5031434;28;25060;-70
2023/08/30 04:30:33;;;;;;;14.93;10.30;;;;;;;;;;5027396;28;25068;-69
2023/08/30 04:33:00;;;;;;;15.63;10.38;;;;;;;;;;5027057;28;25074;-71
2023/08/30 04:35:26;;;;;;;19.77;10.63;;;;;;;;;;5033794;28;25056;-71
2023/08/30 04:37:52;;;;;;;14.65;9.30;;;;;;;;;;5035910;28;25071;-69
2023/08/30 04:40:18;;;;;;;13.93;9.38;;;;;;;;;;5032165;28;25131;-69
2023/08/30 04:42:44;;;;;;;14.07;10.02;;;;;;;;;;5026321;28;25071;-71
2023/08/30 04:45:10;;;;;;;13.18;9.27;;;;;;;;;;5027076;28;25135;-70
2023/08/30 04:47:37;;;;;;;16.00;9.23;;;;;;;;;;5029398;28;25157;-71
2023/08/30 04:50:03;;;;;;;14.48;9.85;;;;;;;;;;5031762;28;25100;-70
2023/08/30 04:52:29;;;;;;;14.18;9.75;;;;;;;;;;5029504;28;25108;-69
2023/08/30 04:54:55;;;;;;;15.65;9.32;;;;;;;;;;5033425;28;25053;-69
2023/08/30 04:57:21;;;;;;;12.73;9.50;;;;;;;;;;5027779;28;25061;-70
2023/08/30 04:59:47;;;;;;;16.80;10.10;;;;;;;;;;5034658;28;25058;-71
2023/08/30 05:02:13;;;;;;;12.05;8.32;;;;;;;;;;5042744;28;25097;-70
2023/08/30 05:04:39;;;;;;;13.57;10.10;;;;;;;;;;5029244;28;25084;-70
2023/08/30 05:07:05;;;;;;;18.42;10.82;;;;;;;;;;5037071;28;25079;-70
2023/08/30 05:09:32;;;;;;;14.88;10.00;;;;;;;;;;5032244;28;25090;-70
2023/08/30 05:11:58;;;;;;;13.43;9.50;;;;;;;;;;5024283;28;25108;-70
2023/08/30 05:14:24;;;;;;;19.80;9.52;;;;;;;;;;5035116;28;25129;-70
2023/08/30 05:16:50;;;;;;;21.80;10.80;;;;;;;;;;5029141;28;25138;-70
2023/08/30 05:19:16;;;;;;;16.73;10.48;;;;;;;;;;5027464;28;25113;-71
2023/08/30 05:21:43;;;;;;;13.18;9.60;;;;;;;;;;5020395;28;25051;-72
2023/08/30 05:24:10;;;;;;;16.50;9.88;;;;;;;;;;5021194;28;25064;-72
2023/08/30 05:26:36;;;;;;;16.52;9.93;;;;;;;;;;5032423;28;25046;-72
2023/08/30 05:29:03;;;;;;;20.05;9.82;;;;;;;;;;5030987;28;25104;-71
2023/08/30 05:31:29;;;;;;;12.43;9.23;;;;;;;;;;5025546;28;25056;-73
2023/08/30 05:33:56;;;;;;;15.90;10.85;;;;;;;;;;5022004;28;25060;-73
2023/08/30 05:36:22;;;;;;;21.85;12.75;;;;;;;;;;5027725;28;25085;-73
2023/08/30 05:38:48;;;;;;;19.65;12.43;;;;;;;;;;5029331;28;25070;-72
2023/08/30 05:41:14;;;;;;;21.10;12.80;;;;;;;;;;5022837;28;25063;-73
2023/08/30 05:43:40;;;;;;;19.23;12.10;;;;;;;;;;5016490;28;25050;-72
2023/08/30 05:46:12;;;;;;;18.20;12.68;;;;;;;;;;5027227;28;25092;-73
2023/08/30 05:48:38;;;;;;;24.42;13.00;;;;;;;;;;5024065;28;25073;-72
2023/08/30 05:51:04;;;;;;;21.73;13.32;;;;;;;;;;5027239;28;25095;-72
2023/08/30 05:53:30;;;;;;;26.33;14.45;;;;;;;;;;5025896;28;25093;-71
2023/08/30 05:55:56;;;;;;;26.33;14.68;;;;;;;;;;5025016;28;25142;-72
2023/08/30 05:58:22;;;;;;;22.40;14.50;;;;;;;;;;5023553;28;25064;-72
2023/08/30 06:00:48;;;;;;;23.83;14.40;;;;;;;;;;5024194;28;25077;-73
2023/08/30 06:03:14;;;;;;;26.00;15.77;;;;;;;;;;5022616;28;25079;-72
2023/08/30 06:05:40;;;;;;;30.90;15.32;;;;;;;;;;5022752;28;25104;-72
2023/08/30 06:08:07;;;;;;;27.40;16.20;;;;;;;;;;5026404;28;25599;-72
2023/08/30 06:10:33;;;;;;;27.92;16.17;;;;;;;;;;5021059;28;25059;-71
2023/08/30 06:12:59;;;;;;;30.98;17.27;;;;;;;;;;5021444;28;25071;-72
2023/08/30 06:15:26;;;;;;;30.13;16.92;;;;;;;;;;5026286;28;25066;-73
2023/08/30 06:17:52;;;;;;;33.03;17.10;;;;;;;;;;5011533;28;25107;-71
2023/08/30 06:20:18;;;;;;;26.58;15.75;;;;;;;;;;5022447;28;25096;-74
2023/08/30 06:22:44;;;;;;;34.38;17.77;;;;;;;;;;5023082;28;25113;-73
2023/08/30 06:25:10;;;;;;;28.13;15.57;;;;;;;;;;5029097;28;25053;-73
2023/08/30 06:27:43;;;;;;;27.70;15.85;;;;;;;;;;5029730;28;25112;-74
2023/08/30 06:30:12;;;;;;;26.70;15.18;;;;;;;;;;5036477;28;25052;-73
2023/08/30 06:32:38;;;;;;;28.70;16.05;;;;;;;;;;5019416;28;25100;-72
2023/08/30 06:35:05;;;;;;;33.85;17.60;;;;;;;;;;5015989;28;25064;-72
2023/08/30 06:37:31;;;;;;;35.25;17.60;;;;;;;;;;5019827;28;25078;-74
2023/08/30 06:39:57;;;;;;;24.42;14.50;;;;;;;;;;5027161;28;25076;-73
2023/08/30 06:42:24;;;;;;;34.53;16.90;;;;;;;;;;5029588;28;25077;-72
2023/08/30 06:44:50;;;;;;;27.85;15.10;;;;;;;;;;5022434;28;25088;-73
2023/08/30 06:47:16;;;;;;;28.67;15.20;;;;;;;;;;5014363;28;25120;-73
2023/08/30 06:49:42;;;;;;;32.67;15.07;;;;;;;;;;5018974;28;25112;-73
2023/08/30 06:52:08;;;;;;;22.92;13.27;;;;;;;;;;5015814;28;25062;-73
2023/08/30 06:54:36;;;;;;;28.05;14.88;;;;;;;;;;5030955;28;25115;-73
2023/08/30 06:57:02;;;;;;;27.73;12.95;;;;;;;;;;5018229;28;25129;-72
2023/08/30 06:59:28;;;;;;;23.75;12.40;;;;;;;;;;5020083;28;25094;-72
2023/08/30 07:01:54;;;;;;;22.65;11.55;;;;;;;;;;5016968;28;25071;-73
2023/08/30 07:04:20;;;;;;;24.48;12.48;;;;;;;;;;5016941;28;25162;-74
2023/08/30 07:06:46;;;;;;;22.67;13.18;;;;;;;;;;5032566;28;25168;-74
2023/08/30 07:09:12;;;;;;;21.58;10.65;;;;;;;;;;5022223;28;25087;-73
2023/08/30 07:11:39;;;;;;;17.60;9.90;;;;;;;;;;5022551;28;25098;-73
2023/08/30 07:14:05;;;;;;;17.08;9.60;;;;;;;;;;5023505;28;25124;-73
2023/08/30 07:16:31;;;;;;;16.05;9.43;;;;;;;;;;5035310;28;25102;-73
2023/08/30 07:18:58;;;;;;;19.00;10.38;;;;;;;;;;5022583;28;25146;-72
2023/08/30 07:21:24;;;;;;;19.00;10.48;;;;;;;;;;5024514;28;25090;-73
2023/08/30 07:23:50;;;;;;;19.40;10.63;;;;;;;;;;5027905;28;25109;-74
2023/08/30 07:26:16;;;;;;;15.48;9.63;;;;;;;;;;5017708;28;25055;-72
2023/08/30 07:28:42;;;;;;;14.75;10.43;;;;;;;;;;5019447;28;25000;-72
2023/08/30 07:31:08;;;;;;;21.08;11.88;;;;;;;;;;5014787;28;25143;-75
2023/08/30 07:33:34;;;;;;;16.88;9.07;;;;;;;;;;5021560;28;25090;-73
2023/08/30 07:36:00;;;;;;;13.25;9.02;;;;;;;;;;5015021;28;25055;-73
2023/08/30 07:38:26;;;;;;;17.42;9.88;;;;;;;;;;5008050;28;25073;-72
2023/08/30 07:40:52;;;;;;;19.80;10.50;;;;;;;;;;5023106;28;25096;-73
2023/08/30 07:43:18;;;;;;;20.08;11.23;;;;;;;;;;5017364;28;25082;-74
2023/08/30 07:45:44;;;;;;;19.02;10.85;;;;;;;;;;5014877;28;25064;-73
2023/08/30 07:48:11;;;;;;;13.25;9.63;;;;;;;;;;5027777;28;25053;-72
2023/08/30 07:50:37;;;;;;;17.15;10.57;;;;;;;;;;5025204;28;25067;-71
2023/08/30 07:53:03;;;;;;;13.25;9.52;;;;;;;;;;5030187;28;25116;-70
2023/08/30 07:55:29;;;;;;;15.13;10.70;;;;;;;;;;5032399;28;25064;-72
2023/08/30 07:57:55;;;;;;;14.90;10.25;;;;;;;;;;5020317;28;25089;-73
2023/08/30 08:00:21;;;;;;;20.88;11.40;;;;;;;;;;5027896;28;25106;-73
2023/08/30 08:02:47;;;;;;;16.80;12.13;;;;;;;;;;5029833;28;25082;-74
2023/08/30 08:05:13;;;;;;;17.20;11.93;;;;;;;;;;5024460;28;25074;-74
2023/08/30 08:07:40;;;;;;;18.92;13.07;;;;;;;;;;5026958;28;25059;-73
2023/08/30 08:10:07;;;;;;;19.15;13.90;;;;;;;;;;5021000;28;25060;-72
2023/08/30 08:12:33;;;;;;;17.70;14.45;;;;;;;;;;5027775;28;25141;-74
2023/08/30 08:14:59;;;;;;;18.38;14.60;;;;;;;;;;5010379;28;25054;-73
2023/08/30 08:17:25;;;;;;;20.10;15.18;;;;;;;;;;5019308;28;25079;-74
2023/08/30 08:19:51;;;;;;;19.17;15.90;;;;;;;;;;5022263;28;25053;-71
2023/08/30 08:22:17;;;;;;;18.00;14.95;;;;;;;;;;5022272;28;25100;-72
2023/08/30 08:24:47;;;;;;;17.90;14.10;;;;;;;;;;5023537;28;25063;-71
2023/08/30 08:27:14;;;;;;;18.30;13.45;;;;;;;;;;5028126;28;25139;-71
2023/08/30 08:29:40;;;;;;;16.50;13.52;;;;;;;;;;5023285;28;25080;-73
2023/08/30 08:32:06;;;;;;;17.35;13.27;;;;;;;;;;5035641;28;25131;-72
2023/08/30 08:34:32;;;;;;;19.58;14.60;;;;;;;;;;5024558;28;25059;-71
2023/08/30 08:36:58;;;;;;;16.25;13.63;;;;;;;;;;5027642;28;25071;-72
2023/08/30 08:39:24;;;;;;;17.58;14.90;;;;;;;;;;5027820;28;25114;-73
2023/08/30 08:41:55;;;;;;;17.27;14.20;;;;;;;;;;5035200;28;25095;-72
2023/08/30 08:44:21;;;;;;;16.83;13.30;;;;;;;;;;5026924;28;25161;-72
2023/08/30 08:46:48;;;;;;;17.02;12.88;;;;;;;;;;5040808;28;25105;-72
2023/08/30 08:49:17;;;;;;;15.98;12.07;;;;;;;;;;5037827;28;25071;-70
2023/08/30 08:51:44;;;;;;;15.13;12.43;;;;;;;;;;5036247;28;25557;-70
2023/08/30 08:54:11;;;;;;;14.10;12.35;;;;;;;;;;5033022;28;25078;-70
2023/08/30 08:56:37;;;;;;;10.40;9.32;;;;;;;;;;5038351;22;26265;-71
2023/08/30 08:59:06;;;;;;;14.13;8.82;;;;;;;;;;5023628;28;25077;-71
2023/08/30 09:01:35;;;;;;;7.00;6.25;;;;;;;;;;5032852;22;25072;-74
2023/08/30 09:04:02;;;;;;;6.43;4.70;;;;;;;;;;5016453;28;25115;-79
2023/08/30 09:06:29;;;;;;;8.13;4.47;;;;;;;;;;5017762;28;25050;-77
2023/08/30 09:08:55;;;;;;;4.68;3.13;;;;;;;;;;5013573;28;25165;-75
2023/08/30 09:11:21;;;;;;;4.88;2.97;;;;;;;;;;5015336;28;25080;-76
2023/08/30 09:13:47;;;;;;;5.60;3.40;;;;;;;;;;5013215;28;25059;-77
2023/08/30 09:16:13;;;;;;;4.57;3.03;;;;;;;;;;5028960;28;25086;-77
2023/08/30 09:18:40;;;;;;;3.25;2.95;;;;;;;;;;5012344;28;25164;-77
2023/08/30 09:21:06;;;;;;;5.72;3.22;;;;;;;;;;5008964;28;25074;-75
2023/08/30 09:23:33;;;;;;;5.68;2.58;;;;;;;;;;5016607;28;25113;-77
2023/08/30 09:25:59;;;;;;;3.10;2.35;;;;;;;;;;5020624;28;25091;-79
2023/08/30 09:28:26;;;;;;;6.25;2.60;;;;;;;;;;5012761;28;25063;-76
2023/08/30 09:30:54;;;;;;;5.80;3.10;;;;;;;;;;5014132;28;25144;-76
2023/08/30 09:33:33;;;;;;;4.95;2.60;;;;;;;;;;5011278;28;25137;-78
2023/08/30 09:35:59;;;;;;;4.00;2.33;;;;;;;;;;5004373;28;25046;-78
2023/08/30 09:38:26;;;;;;;8.40;3.15;;;;;;;;;;5012457;28;25071;-76
2023/08/30 09:40:52;;;;;;;7.53;3.60;;;;;;;;;;5011330;28;25080;-75
2023/08/30 09:43:21;;;;;;;8.65;4.82;;;;;;;;;;5008524;28;25064;-75
2023/08/30 09:45:47;;;;;;;11.63;4.40;;;;;;;;;;5016656;28;25050;-77
2023/08/30 09:48:14;;;;;;;9.48;4.30;;;;;;;;;;5008020;28;25070;-75
2023/08/30 09:50:41;;;;;;;6.90;4.15;;;;;;;;;;5017125;28;25147;-76
2023/08/30 09:53:09;;;;;;;9.43;4.30;;;;;;;;;;5009921;28;25073;-76
2023/08/30 09:55:35;;;;;;;9.32;4.57;;;;;;;;;;5010981;28;25056;-79
2023/08/30 09:58:04;;;;;;;7.88;3.88;;;;;;;;;;5011102;28;25041;-77
2023/08/30 10:00:31;;;;;;;12.80;4.20;;;;;;;;;;5013526;28;25063;-77
2023/08/30 10:02:59;;;;;;;11.30;4.53;;;;;;;;;;5009118;28;25086;-75
2023/08/30 10:05:26;;;;;;;8.32;4.15;;;;;;;;;;5013342;28;25095;-75
2023/08/30 10:07:53;;;;;;;9.32;4.32;;;;;;;;;;5007907;28;25070;-75
2023/08/30 10:10:25;;;;;;;12.93;4.80;;;;;;;;;;5006335;28;25057;-75
2023/08/30 10:12:52;;;;;;;9.40;4.45;;;;;;;;;;5008953;28;25093;-76
2023/08/30 10:15:20;;;;;;;10.55;4.82;;;;;;;;;;5012404;28;25088;-77
2023/08/30 10:17:46;;;;;;;11.73;4.60;;;;;;;;;;5008257;28;25122;-76
2023/08/30 10:20:12;;;;;;;13.73;4.35;;;;;;;;;;5012036;28;25084;-74
2023/08/30 10:22:40;;;;;;;9.50;4.50;;;;;;;;;;5007402;28;25109;-77
2023/08/30 10:25:16;;;;;;;6.82;4.10;;;;;;;;;;5005520;28;25098;-77
2023/08/30 10:27:44;;;;;;;9.73;3.40;;;;;;;;;;5008682;28;25126;-78
2023/08/30 10:30:11;;;;;;;10.63;4.10;;;;;;;;;;5017080;28;25181;-76
2023/08/30 10:32:41;;;;;;;10.50;3.58;;;;;;;;;;5010751;28;25080;-77
2023/08/30 10:35:07;;;;;;;9.68;3.35;;;;;;;;;;5013680;28;25098;-75
2023/08/30 10:37:34;;;;;;;9.52;3.13;;;;;;;;;;5014916;28;25071;-78
2023/08/30 10:40:04;;;;;;;8.50;2.53;;;;;;;;;;5019192;28;25076;-77
2023/08/30 10:42:30;;;;;;;7.13;2.42;;;;;;;;;;5018079;28;25077;-77
2023/08/30 10:45:00;;;;;;;10.63;2.50;;;;;;;;;;5020928;28;25091;-77
2023/08/30 10:47:29;;;;;;;11.20;2.50;;;;;;;;;;5021677;28;25052;-78
2023/08/30 10:49:56;;;;;;;5.90;2.47;;;;;;;;;;5017006;28;25080;-75
2023/08/30 10:52:22;;;;;;;5.78;2.80;;;;;;;;;;5014685;28;25134;-77
2023/08/30 10:54:50;;;;;;;7.95;2.80;;;;;;;;;;5014276;28;25078;-77
2023/08/30 10:57:18;;;;;;;11.18;2.78;;;;;;;;;;5010347;28;25062;-77
2023/08/30 11:00:03;;;;;;;14.88;2.97;;;;;;;;;;5020039;28;25100;-76
2023/08/30 11:02:30;;;;;;;12.30;2.83;;;;;;;;;;5020748;28;25068;-77
2023/08/30 11:04:57;;;;;;;8.73;3.22;;;;;;;;;;5038138;28;25072;-76
2023/08/30 11:07:25;;;;;;;16.77;3.80;;;;;;;;;;5019341;28;25060;-75
2023/08/30 11:09:52;;;;;;;11.15;3.78;;;;;;;;;;5015282;28;25086;-75
2023/08/30 11:12:18;;;;;;;12.00;4.18;;;;;;;;;;5018759;28;25070;-75
2023/08/30 11:14:44;;;;;;;9.27;2.75;;;;;;;;;;5010979;28;25131;-75
2023/08/30 11:17:10;;;;;;;9.95;3.42;;;;;;;;;;5014217;28;25073;-76
2023/08/30 11:19:36;;;;;;;9.95;2.80;;;;;;;;;;5014001;28;25109;-76
2023/08/30 11:22:03;;;;;;;12.43;2.47;;;;;;;;;;5018844;28;25078;-74
2023/08/30 11:24:29;;;;;;;11.52;2.70;;;;;;;;;;5007680;28;25067;-74
2023/08/30 11:26:55;;;;;;;11.25;3.55;;;;;;;;;;5034351;28;25066;-73
2023/08/30 11:29:21;;;;;;;10.63;2.58;;;;;;;;;;5012271;28;25063;-76
2023/08/30 11:31:47;;;;;;;6.60;2.15;;;;;;;;;;5017017;28;25074;-75
2023/08/30 11:34:13;;;;;;;10.07;2.97;;;;;;;;;;5016498;28;25065;-75
2023/08/30 11:36:39;;;;;;;10.60;2.58;;;;;;;;;;5016656;28;25056;-75
2023/08/30 11:39:07;;;;;;;7.43;2.45;;;;;;;;;;5011848;28;25176;-72
2023/08/30 11:41:33;;;;;;;10.07;2.35;;;;;;;;;;5013899;28;25081;-75
2023/08/30 11:44:00;;;;;;;5.22;1.77;;;;;;;;;;5012994;28;25060;-73
2023/08/30 11:46:26;;;;;;;11.90;2.22;;;;;;;;;;5035803;28;25053;-74
2023/08/30 11:48:52;;;;;;;7.10;1.83;;;;;;;;;;5019233;28;25057;-73
2023/08/30 11:51:19;;;;;;;8.20;2.47;;;;;;;;;;5016142;28;25067;-73
2023/08/30 11:53:45;;;;;;;8.77;2.33;;;;;;;;;;5012489;28;25065;-74
2023/08/30 11:56:12;;;;;;;5.43;1.98;;;;;;;;;;5024917;28;25107;-74
2023/08/30 11:58:38;;;;;;;6.65;2.30;;;;;;;;;;5028930;28;25069;-74
2023/08/30 12:01:04;;;;;;;5.72;2.38;;;;;;;;;;5010609;28;25046;-74
2023/08/30 12:03:31;;;;;;;8.05;2.30;;;;;;;;;;5016404;28;25070;-75
2023/08/30 12:05:57;;;;;;;7.80;2.75;;;;;;;;;;5015974;28;25070;-73
2023/08/30 12:08:25;;;;;;;6.82;2.17;;;;;;;;;;5008705;28;25066;-77
2023/08/30 12:10:51;;;;;;;10.38;2.30;;;;;;;;;;5017782;28;25094;-74
2023/08/30 12:13:23;;;;;;;5.97;2.10;;;;;;;;;;5007382;28;25066;-74
2023/08/30 12:15:49;;;;;;;8.15;2.33;;;;;;;;;;5007885;28;25091;-75
2023/08/30 12:18:15;;;;;;;8.73;1.60;;;;;;;;;;5013101;28;25066;-74
2023/08/30 12:20:52;;;;;;;9.43;2.53;;;;;;;;;;5003105;28;25065;-74
2023/08/30 12:23:22;;;;;;;7.53;2.47;;;;;;;;;;5001297;28;25100;-73
2023/08/30 12:26:04;;;;;;;8.02;2.08;;;;;;;;;;5007912;28;25095;-73
2023/08/30 12:28:31;;;;;;;7.35;1.98;;;;;;;;;;5001648;28;25103;-74
2023/08/30 12:30:57;;;;;;;5.88;1.55;;;;;;;;;;5016818;28;25057;-74
2023/08/30 12:33:28;;;;;;;6.65;2.10;;;;;;;;;;5004283;28;25068;-73
2023/08/30 12:35:54;;;;;;;7.07;2.08;;;;;;;;;;5005615;28;25078;-73
2023/08/30 12:38:20;;;;;;;5.95;2.15;;;;;;;;;;5006974;28;25092;-74
2023/08/30 12:40:47;;;;;;;9.82;1.73;;;;;;;;;;5016584;28;25154;-73
2023/08/30 12:43:13;;;;;;;9.98;2.35;;;;;;;;;;5009646;28;25086;-72
2023/08/30 12:45:40;;;;;;;7.10;1.60;;;;;;;;;;5005275;28;25105;-71
2023/08/30 12:48:07;;;;;;;10.15;2.33;;;;;;;;;;5019111;28;25072;-71
2023/08/30 12:50:33;;;;;;;6.57;2.05;;;;;;;;;;5004251;28;25091;-72
2023/08/30 12:52:59;;;;;;;9.80;1.88;;;;;;;;;;5005820;28;25120;-72
2023/08/30 12:55:24;;;;;;;3.65;1.50;;;;;;;;;;5018464;28;25070;-74
2023/08/30 12:57:50;;;;;;;6.50;1.35;;;;;;;;;;5000582;28;25067;-73
2023/08/30 13:00:16;;;;;;;6.60;1.85;;;;;;;;;;5004155;28;25070;-74
2023/08/30 13:02:42;;;;;;;6.20;1.98;;;;;;;;;;4999834;28;25075;-74
2023/08/30 13:05:08;;;;;;;7.45;1.63;;;;;;;;;;5003613;28;25079;-76
2023/08/30 13:07:34;;;;;;;3.33;1.30;;;;;;;;;;5005291;28;25092;-72
2023/08/30 13:10:00;;;;;;;8.50;2.53;;;;;;;;;;5001663;28;25065;-74
2023/08/30 13:12:26;;;;;;;6.95;1.77;;;;;;;;;;5003754;28;25077;-74
2023/08/30 13:14:52;;;;;;;5.25;2.28;;;;;;;;;;5004569;28;25094;-73
2023/08/30 13:17:18;;;;;;;9.90;2.05;;;;;;;;;;5004407;28;25060;-75
2023/08/30 13:19:44;;;;;;;9.88;1.73;;;;;;;;;;5001266;28;25056;-73
2023/08/30 13:22:10;;;;;;;6.47;1.65;;;;;;;;;;4995233;28;25062;-73
2023/08/30 13:24:36;;;;;;;6.60;1.92;;;;;;;;;;5005610;28;25060;-71
2023/08/30 13:27:03;;;;;;;4.88;1.63;;;;;;;;;;5001730;28;25053;-72
2023/08/30 13:29:29;;;;;;;7.35;2.58;;;;;;;;;;5001499;28;25069;-71
2023/08/30 13:31:55;;;;;;;4.85;1.40;;;;;;;;;;5003510;28;25170;-74
2023/08/30 13:34:21;;;;;;;8.13;1.83;;;;;;;;;;5000160;28;25094;-73
2023/08/30 13:36:47;;;;;;;7.60;1.88;;;;;;;;;;5005150;28;25052;-74
2023/08/30 13:39:14;;;;;;;9.77;1.52;;;;;;;;;;5003451;28;25073;-73
2023/08/30 13:41:40;;;;;;;8.88;1.70;;;;;;;;;;5001115;28;25160;-71
2023/08/30 13:44:06;;;;;;;4.72;1.38;;;;;;;;;;5002809;28;25102;-71
2023/08/30 13:46:32;;;;;;;6.80;1.88;;;;;;;;;;5006972;28;25070;-74
2023/08/30 13:48:58;;;;;;;5.50;1.80;;;;;;;;;;5015366;28;25067;-75
2023/08/30 13:51:25;;;;;;;4.82;1.42;;;;;;;;;;4997006;28;25104;-74
2023/08/30 13:53:52;;;;;;;4.93;2.35;;;;;;;;;;5006597;28;25151;-72
2023/08/30 13:56:18;;;;;;;4.25;1.50;;;;;;;;;;5007375;28;25085;-72
2023/08/30 13:58:44;;;;;;;9.15;2.60;;;;;;;;;;4999829;28;25082;-74
2023/08/30 14:01:10;;;;;;;6.32;1.92;;;;;;;;;;5001645;28;25046;-73
2023/08/30 14:03:36;;;;;;;4.22;1.67;;;;;;;;;;5007586;28;25130;-74
2023/08/30 14:06:02;;;;;;;8.20;1.92;;;;;;;;;;4998524;28;25068;-74
2023/08/30 14:08:28;;;;;;;8.80;1.80;;;;;;;;;;5004406;28;25069;-74
2023/08/30 14:10:58;;;;;;;6.10;1.55;;;;;;;;;;5002033;28;25057;-73
2023/08/30 14:13:24;;;;;;;9.70;2.20;;;;;;;;;;4998623;28;25056;-72
2023/08/30 14:15:50;;;;;;;6.00;1.77;;;;;;;;;;5002265;28;25142;-73
2023/08/30 14:18:17;;;;;;;9.57;2.50;;;;;;;;;;5000525;28;25144;-73
2023/08/30 14:20:43;;;;;;;12.80;2.20;;;;;;;;;;4996556;28;25073;-74
2023/08/30 14:23:09;;;;;;;5.13;1.48;;;;;;;;;;5005995;28;25088;-74
2023/08/30 14:25:35;;;;;;;9.10;1.60;;;;;;;;;;4995654;28;25129;-74